Time;durP1;ratioP1;P1;durP2;ratioP2;P2;SDS_P1;SDS_P2;PMS_P1;PMS_P2;Temp;Humidity;BMP_temperature;BMP_pressure;BME280_temperature;BME280_humidity;BME280_pressure;Samples;Min_cycle;Max_cycle;Signal;HPM_P1;HPM_P2
2023/05/10 00:01:48;;;;;;;21.10;14.43;;;;;;;12.77;100.00;100653.50;5051789;28;20072;-59
2023/05/10 00:04:16;;;;;;;20.98;14.57;;;;;;;12.79;100.00;100657.72;5055647;28;20094;-59
2023/05/10 00:06:49;;;;;;;23.38;14.25;;;;;;;12.82;100.00;100660.09;5055652;28;20488;-59
2023/05/10 00:09:17;;;;;;;24.50;16.10;;;;;;;12.83;100.00;100661.78;5053392;28;20045;-58
2023/05/10 00:11:45;;;;;;;28.77;17.40;;;;;;;12.81;100.00;100661.06;5052082;28;20136;-59
2023/05/10 00:14:13;;;;;;;26.88;17.90;;;;;;;12.80;100.00;100658.53;5055435;28;20499;-58
2023/05/10 00:16:41;;;;;;;28.50;18.38;;;;;;;12.80;100.00;100658.53;5055716;28;20500;-58
2023/05/10 00:19:09;;;;;;;27.98;17.10;;;;;;;12.81;100.00;100652.31;5055296;28;20492;-59
2023/05/10 00:21:37;;;;;;;28.88;18.63;;;;;;;12.85;100.00;100659.03;5055539;28;20649;-58
2023/05/10 00:24:07;;;;;;;30.58;18.20;;;;;;;12.84;100.00;100655.56;5055166;28;20064;-54
2023/05/10 00:26:35;;;;;;;31.95;20.42;;;;;;;12.82;100.00;100661.91;5055125;28;20076;-49
2023/05/10 00:29:03;;;;;;;34.58;21.00;;;;;;;12.78;100.00;100655.19;5053994;28;20467;-52
2023/05/10 00:31:31;;;;;;;36.60;22.80;;;;;;;12.79;100.00;100651.59;5055243;28;20048;-51
2023/05/10 00:34:00;;;;;;;37.90;22.27;;;;;;;12.79;100.00;100652.44;5055342;28;20124;-51
2023/05/10 00:36:28;;;;;;;38.25;23.73;;;;;;;12.81;100.00;100647.03;5054958;28;20496;-51
2023/05/10 00:38:56;;;;;;;37.65;23.63;;;;;;;12.79;100.00;100648.97;5051766;28;20045;-53
2023/05/10 00:41:26;;;;;;;38.95;25.20;;;;;;;12.80;100.00;100643.56;5046809;28;20103;-50
2023/05/10 00:43:54;;;;;;;40.33;24.25;;;;;;;12.83;100.00;100650.41;5050546;28;20106;-52
2023/05/10 00:46:22;;;;;;;42.13;25.77;;;;;;;12.86;100.00;100647.53;5050386;28;20041;-53
2023/05/10 00:48:51;;;;;;;42.15;25.65;;;;;;;12.85;100.00;100649.28;5049947;28;20396;-52
2023/05/10 00:51:19;;;;;;;44.50;26.83;;;;;;;12.83;100.00;100643.31;5052502;28;20053;-52
2023/05/10 00:53:48;;;;;;;41.55;26.13;;;;;;;12.82;100.00;100640.78;5054604;28;20129;-52
2023/05/10 00:56:16;;;;;;;48.40;27.40;;;;;;;12.84;100.00;100641.50;5055059;28;20053;-51
2023/05/10 00:58:46;;;;;;;45.50;26.70;;;;;;;12.84;100.00;100641.50;5052930;28;20071;-52
2023/05/10 01:01:14;;;;;;;45.55;27.63;;;;;;;12.87;100.00;100643.94;5050593;28;20053;-52
2023/05/10 01:03:43;;;;;;;44.92;26.58;;;;;;;12.90;100.00;100642.81;5049734;28;20041;-51
2023/05/10 01:06:11;;;;;;;46.22;27.75;;;;;;;12.87;100.00;100641.28;5048979;28;20044;-51
2023/05/10 01:08:40;;;;;;;45.40;27.70;;;;;;;12.85;100.00;100643.19;5050931;28;20504;-52
2023/05/10 01:11:08;;;;;;;47.13;27.08;;;;;;;12.87;100.00;100638.66;5054049;28;20057;-53
2023/05/10 01:13:39;;;;;;;50.25;27.98;;;;;;;12.85;100.00;100644.03;5054747;28;20053;-51
2023/05/10 01:16:09;;;;;;;47.15;28.23;;;;;;;12.89;100.00;100636.72;5054371;28;20045;-54
2023/05/10 01:18:40;;;;;;;48.40;27.25;;;;;;;12.94;100.00;100633.69;5054303;28;20040;-51
2023/05/10 01:21:22;;;;;;;45.15;27.65;;;;;;;12.90;100.00;100643.69;5048716;28;20534;-51
2023/05/10 01:24:22;;;;;;;49.47;29.58;;;;;;;12.87;100.00;100641.28;5050891;28;20061;-52
2023/05/10 01:27:16;;;;;;;42.53;26.98;;;;;;;12.90;100.00;100646.31;5053882;28;20075;-53
2023/05/10 01:30:31;;;;;;;46.00;25.85;;;;;;;12.90;100.00;100643.69;5049614;28;20056;-53
2023/05/10 01:33:03;;;;;;;50.97;29.58;;;;;;;12.82;100.00;100643.44;5029100;28;20057;-51
2023/05/10 01:35:41;;;;;;;45.90;27.60;;;;;;;12.85;100.00;100643.19;5053915;28;20041;-52
2023/05/10 01:38:18;;;;;;;48.17;29.35;;;;;;;12.81;100.00;100645.22;5053821;28;20053;-52
2023/05/10 01:40:58;;;;;;;49.65;28.55;;;;;;;12.83;100.00;100645.13;5050886;28;20045;-53
2023/05/10 01:43:32;;;;;;;51.45;29.67;;;;;;;12.87;100.00;100649.19;5049678;28;20041;-49
2023/05/10 01:46:10;;;;;;;50.45;30.70;;;;;;;12.87;100.00;100643.94;5053562;28;20079;-52
2023/05/10 01:48:46;;;;;;;48.85;30.02;;;;;;;12.87;100.00;100646.56;5053758;28;20041;-50
2023/05/10 01:51:20;;;;;;;46.70;28.08;;;;;;;12.87;100.00;100648.34;5050561;28;20454;-50
2023/05/10 01:53:50;;;;;;;52.55;26.60;;;;;;;12.83;100.00;100642.47;5048867;28;20099;-53
2023/05/10 01:56:21;;;;;;;44.25;26.65;;;;;;;12.84;100.00;100641.50;5052942;28;20052;-48
2023/05/10 01:58:50;;;;;;;45.42;27.63;;;;;;;12.83;100.00;100645.94;5053430;28;20049;-51
2023/05/10 02:01:22;;;;;;;44.45;25.67;;;;;;;12.86;100.00;100650.16;5052070;28;20057;-50
2023/05/10 02:03:52;;;;;;;46.38;26.20;;;;;;;12.84;100.00;100649.41;5053382;28;20131;-50
2023/05/10 02:06:23;;;;;;;45.10;26.95;;;;;;;12.88;100.00;100650.03;5053450;28;20480;-53
2023/05/10 02:08:53;;;;;;;44.20;27.15;;;;;;;12.91;100.00;100650.66;5053367;28;20045;-50
2023/05/10 02:11:22;;;;;;;44.22;25.80;;;;;;;12.83;100.00;100653.03;5053315;28;20045;-48
2023/05/10 02:13:52;;;;;;;44.13;25.17;;;;;;;12.83;100.00;100645.13;5053156;28;20095;-51
2023/05/10 02:16:25;;;;;;;43.20;25.75;;;;;;;12.84;100.00;100646.78;5050525;28;20079;-52
2023/05/10 02:18:57;;;;;;;43.38;24.92;;;;;;;12.86;100.00;100647.53;5048577;28;20055;-54
2023/05/10 02:21:26;;;;;;;43.60;25.48;;;;;;;12.88;100.00;100650.84;5048050;28;20527;-53
2023/05/10 02:23:55;;;;;;;47.03;26.00;;;;;;;12.86;100.00;100650.16;5050883;28;20088;-51
2023/05/10 02:26:25;;;;;;;43.42;24.25;;;;;;;12.85;100.00;100656.38;5053121;28;20408;-52
2023/05/10 02:28:55;;;;;;;44.15;24.95;;;;;;;12.85;100.00;100659.84;5053042;28;20048;-51
2023/05/10 02:31:24;;;;;;;43.28;23.92;;;;;;;12.88;100.00;100666.69;5049281;28;20591;-50
2023/05/10 02:33:54;;;;;;;48.85;25.63;;;;;;;12.79;100.00;100659.50;5048704;28;20072;-53
2023/05/10 02:36:24;;;;;;;53.38;26.38;;;;;;;12.83;100.00;100667.06;5051445;28;20053;-52
2023/05/10 02:38:53;;;;;;;47.17;25.75;;;;;;;12.80;100.00;100669.09;5048295;28;20060;-52
2023/05/10 02:41:23;;;;;;;47.13;24.98;;;;;;;12.82;100.00;100667.19;5049402;28;20544;-49
2023/05/10 02:43:53;;;;;;;47.45;25.40;;;;;;;12.84;100.00;100670.53;5052516;28;20047;-50
2023/05/10 02:46:21;;;;;;;48.65;26.15;;;;;;;12.84;100.00;100668.75;5052625;28;20446;-51
2023/05/10 02:48:49;;;;;;;51.63;26.55;;;;;;;12.84;100.00;100670.53;5052488;28;20044;-51
2023/05/10 02:51:20;;;;;;;48.78;26.40;;;;;;;12.85;100.00;100672.22;5050490;28;20068;-51
2023/05/10 02:53:51;;;;;;;49.28;26.33;;;;;;;12.85;100.00;100678.31;5047731;28;20060;-50
2023/05/10 02:56:26;;;;;;;49.20;26.10;;;;;;;12.78;100.00;100677.13;5050961;28;20252;-48
2023/05/10 02:58:54;;;;;;;51.33;26.58;;;;;;;12.80;100.00;100674.38;5052216;28;20081;-52
2023/05/10 03:01:22;;;;;;;56.67;27.58;;;;;;;12.79;100.00;100670.06;5052334;28;20446;-53
2023/05/10 03:03:51;;;;;;;51.30;26.90;;;;;;;12.80;100.00;100669.94;5052506;28;20369;-51
2023/05/10 03:06:19;;;;;;;52.70;27.67;;;;;;;12.79;100.00;100676.19;5052490;28;20128;-52
2023/05/10 03:08:47;;;;;;;52.65;27.88;;;;;;;12.79;100.00;100668.25;5048728;28;20052;-51
2023/05/10 03:11:44;;;;;;;51.38;28.55;;;;;;;12.82;100.00;100675.09;5046930;28;20051;-51
2023/05/10 03:14:27;;;;;;;53.40;29.90;;;;;;;12.81;100.00;100671.59;5052221;28;20122;-53
2023/05/10 03:17:01;;;;;;;55.05;29.13;;;;;;;12.81;100.00;100678.69;5052442;28;20531;-50
2023/05/10 03:19:34;;;;;;;58.38;29.70;;;;;;;12.76;100.00;100678.19;5052079;28;20110;-50
2023/05/10 03:22:09;;;;;;;;;;;;;;;12.72;100.00;100677.63;5051657;28;20114;-51
2023/05/10 03:24:40;;;;;;;54.97;29.83;;;;;;;12.74;100.00;100680.97;5047323;28;20293;-52
2023/05/10 03:27:10;;;;;;;61.00;30.42;;;;;;;12.72;100.00;100682.91;5046689;28;20072;-50
2023/05/10 03:29:39;;;;;;;54.65;29.17;;;;;;;12.71;100.00;100686.47;5047199;28;20045;-50
2023/05/10 03:32:10;;;;;;;50.67;30.53;;;;;;;12.70;100.00;100689.25;5051702;28;20143;-54
2023/05/10 03:34:43;;;;;;;52.60;31.38;;;;;;;12.63;100.00;100686.22;5050829;28;20056;-52
2023/05/10 03:37:11;;;;;;;59.13;31.27;;;;;;;12.61;100.00;100688.13;5051483;28;20373;-55
2023/05/10 03:39:42;;;;;;;57.25;31.60;;;;;;;12.57;100.00;100684.03;5053991;28;20050;-53
2023/05/10 03:42:11;;;;;;;51.33;30.50;;;;;;;12.58;100.00;100688.38;5055930;28;20358;-51
2023/05/10 03:44:52;;;;;;;52.38;30.13;;;;;;;12.60;100.00;100689.94;5056205;28;20106;-56
2023/05/10 03:47:26;;;;;;;52.67;29.65;;;;;;;12.50;100.00;100694.22;5054695;28;20045;-56
2023/05/10 03:49:55;;;;;;;55.60;31.60;;;;;;;12.56;100.00;100696.41;5055913;28;20374;-52
2023/05/10 03:52:23;;;;;;;61.72;33.35;;;;;;;12.53;100.00;100694.00;5055807;28;20508;-53
2023/05/10 03:54:54;;;;;;;59.25;33.03;;;;;;;12.50;100.00;100707.41;5054287;28;20412;-54
2023/05/10 03:57:26;;;;;;;56.25;32.42;;;;;;;12.41;100.00;100701.03;5049974;28;20051;-50
2023/05/10 03:59:55;;;;;;;56.42;31.80;;;;;;;12.48;100.00;100712.81;5052825;28;20067;-52
2023/05/10 04:02:23;;;;;;;56.72;31.90;;;;;;;12.45;100.00;100718.31;5055687;28;20128;-53
2023/05/10 04:04:51;;;;;;;60.65;33.45;;;;;;;12.47;100.00;100720.84;5055731;28;20056;-52
2023/05/10 04:07:19;;;;;;;57.88;32.28;;;;;;;12.48;100.00;100720.72;5055476;28;20492;-53
2023/05/10 04:09:50;;;;;;;58.05;30.88;;;;;;;12.50;100.00;100715.31;5050748;28;20065;-54
2023/05/10 04:12:19;;;;;;;57.03;29.80;;;;;;;12.49;100.00;100716.31;5050720;28;20053;-53
2023/05/10 04:14:48;;;;;;;60.85;32.33;;;;;;;12.45;100.00;100723.59;5050484;28;20045;-52
2023/05/10 04:17:16;;;;;;;55.67;31.80;;;;;;;12.40;100.00;100715.19;5050211;28;20063;-53
2023/05/10 04:19:44;;;;;;;57.28;30.48;;;;;;;12.42;100.00;100717.69;5054312;28;20073;-49
2023/05/10 04:22:12;;;;;;;58.92;31.10;;;;;;;12.46;100.00;100721.78;5055157;28;20045;-51
2023/05/10 04:24:40;;;;;;;55.78;31.30;;;;;;;12.46;100.00;100721.78;5055485;28;20048;-51
2023/05/10 04:27:11;;;;;;;52.83;28.98;;;;;;;12.47;100.00;100726.09;5054356;28;20044;-57
2023/05/10 04:29:41;;;;;;;58.23;31.67;;;;;;;12.45;100.00;100720.97;5053726;28;20049;-53
2023/05/10 04:32:11;;;;;;;50.03;29.48;;;;;;;12.48;100.00;100723.34;5055257;28;20110;-51
2023/05/10 04:34:39;;;;;;;53.92;28.98;;;;;;;12.46;100.00;100716.50;5055602;28;20044;-50
2023/05/10 04:37:07;;;;;;;49.15;27.65;;;;;;;12.47;100.00;100720.84;5055313;28;20523;-49
2023/05/10 04:39:36;;;;;;;53.17;28.80;;;;;;;12.45;100.00;100728.88;5055164;28;20089;-50
2023/05/10 04:42:05;;;;;;;46.30;26.90;;;;;;;12.45;100.00;100718.31;5054988;28;20037;-53
2023/05/10 04:44:33;;;;;;;46.47;26.30;;;;;;;12.33;100.00;100724.50;5054753;28;20049;-54
2023/05/10 04:47:04;;;;;;;46.17;25.83;;;;;;;12.34;100.00;100727.03;5054093;28;20037;-53
2023/05/10 04:49:34;;;;;;;49.03;26.02;;;;;;;12.36;100.00;100734.00;5054717;28;20111;-50
2023/05/10 04:52:05;;;;;;;51.22;27.25;;;;;;;12.36;100.00;100729.53;5051578;28;20067;-51
2023/05/10 04:54:33;;;;;;;53.47;28.55;;;;;;;12.39;100.00;100733.75;5050334;28;20087;-53
2023/05/10 04:57:01;;;;;;;52.72;27.60;;;;;;;12.39;100.00;100739.84;5049216;28;20053;-53
2023/05/10 04:59:29;;;;;;;48.78;27.10;;;;;;;12.36;100.00;100732.19;5053553;28;20087;-53
2023/05/10 05:01:57;;;;;;;51.80;27.15;;;;;;;12.41;100.00;100734.50;5054093;28;20419;-52
2023/05/10 05:04:25;;;;;;;51.60;27.27;;;;;;;12.41;100.00;100721.31;5052315;28;20483;-51
2023/05/10 05:06:57;;;;;;;46.85;26.85;;;;;;;12.41;100.00;100734.50;5049895;28;20037;-51
2023/05/10 05:09:25;;;;;;;50.90;27.70;;;;;;;12.40;100.00;100733.63;5050211;28;20110;-52
2023/05/10 05:11:53;;;;;;;50.70;27.27;;;;;;;12.43;100.00;100733.41;5049522;28;20044;-52
2023/05/10 05:14:21;;;;;;;46.30;25.42;;;;;;;12.42;100.00;100736.16;5053425;28;20439;-53
2023/05/10 05:16:53;;;;;;;48.33;27.67;;;;;;;12.45;100.00;100738.59;5049950;28;20053;-52
2023/05/10 05:19:21;;;;;;;52.33;26.80;;;;;;;12.49;100.00;100745.31;5049826;28;20675;-53
2023/05/10 05:21:49;;;;;;;56.70;27.77;;;;;;;12.46;100.00;100745.53;5049382;28;20159;-51
2023/05/10 05:24:19;;;;;;;53.65;27.35;;;;;;;12.46;100.00;100741.09;5048587;28;20068;-54
2023/05/10 05:26:47;;;;;;;56.90;28.13;;;;;;;12.42;100.00;100744.06;5049119;28;20516;-53
2023/05/10 05:29:17;;;;;;;50.90;27.13;;;;;;;12.45;100.00;100744.69;5053804;28;20041;-53
2023/05/10 05:31:45;;;;;;;51.03;26.15;;;;;;;12.44;100.00;100743.00;5053956;28;20098;-50
2023/05/10 05:34:13;;;;;;;51.67;27.73;;;;;;;12.45;100.00;100741.22;5050914;28;20056;-53
2023/05/10 05:36:42;;;;;;;55.50;27.80;;;;;;;12.47;100.00;100749.84;5049387;28;20098;-52
2023/05/10 05:39:13;;;;;;;46.78;26.83;;;;;;;12.50;100.00;100750.47;5050114;28;20562;-52
2023/05/10 05:41:42;;;;;;;56.78;27.38;;;;;;;12.54;100.00;100755.50;5053770;28;20048;-51
2023/05/10 05:44:10;;;;;;;49.60;27.17;;;;;;;12.56;100.00;100757.06;5053879;28;20492;-51
2023/05/10 05:46:38;;;;;;;53.05;26.48;;;;;;;12.55;100.00;100752.75;5053852;28;20041;-53
2023/05/10 05:49:06;;;;;;;50.92;26.60;;;;;;;12.53;100.00;100762.59;5050049;28;20491;-53
2023/05/10 05:51:35;;;;;;;48.88;26.25;;;;;;;12.50;100.00;100752.25;5048478;28;20064;-54
2023/05/10 05:54:04;;;;;;;51.70;26.50;;;;;;;12.57;100.00;100755.28;5053260;28;20045;-55
2023/05/10 05:56:32;;;;;;;48.15;26.15;;;;;;;12.60;100.00;100757.69;5053604;28;20543;-51
2023/05/10 05:59:01;;;;;;;59.08;27.60;;;;;;;12.63;100.00;100749.53;5050673;28;20068;-54
2023/05/10 06:01:29;;;;;;;55.80;27.17;;;;;;;12.67;100.00;100754.47;5049158;28;20056;-54
2023/05/10 06:03:58;;;;;;;56.60;26.77;;;;;;;12.69;100.00;100759.63;5048056;28;20144;-52
2023/05/10 06:06:29;;;;;;;51.70;27.45;;;;;;;12.75;100.00;100760.94;5052231;28;20106;-52
2023/05/10 06:08:57;;;;;;;49.13;25.70;;;;;;;12.83;100.00;100766.53;5053380;28;20385;-51
2023/05/10 06:11:26;;;;;;;46.47;24.83;;;;;;;12.89;100.00;100766.03;5053238;28;20124;-52
2023/05/10 06:13:55;;;;;;;49.75;24.48;;;;;;;12.89;100.00;100760.75;5052972;28;20111;-51
2023/05/10 06:16:27;;;;;;;50.47;26.95;;;;;;;12.91;100.00;100764.13;5052932;28;20052;-52
2023/05/10 06:18:55;;;;;;;49.25;27.25;;;;;;;12.88;100.00;100771.44;5052829;28;20060;-54
2023/05/10 06:21:23;;;;;;;52.42;27.42;;;;;;;12.89;100.00;100767.84;5052804;28;20090;-53
2023/05/10 06:23:52;;;;;;;52.72;27.92;;;;;;;12.89;100.00;100768.69;5052257;28;20056;-52
2023/05/10 06:26:20;;;;;;;53.70;26.55;;;;;;;12.91;100.00;100776.47;5052853;28;20055;-54
2023/05/10 06:28:48;;;;;;;51.10;26.83;;;;;;;12.98;100.00;100767.97;5053042;28;20049;-50
2023/05/10 06:31:17;;;;;;;60.22;27.60;;;;;;;12.96;100.00;100782.25;5052850;28;20056;-54
2023/05/10 06:33:46;;;;;;;53.10;26.48;;;;;;;12.99;100.00;100782.00;5052755;28;20067;-53
2023/05/10 06:36:17;;;;;;;49.33;28.00;;;;;;;13.01;100.00;100788.84;5052633;28;20102;-53
2023/05/10 06:38:47;;;;;;;52.75;27.70;;;;;;;13.04;100.00;100790.41;5050531;28;20480;-50
2023/05/10 06:41:15;;;;;;;51.08;27.15;;;;;;;13.06;100.00;100785.88;5048070;28;20060;-53
2023/05/10 06:43:43;;;;;;;51.47;28.80;;;;;;;13.05;100.00;100788.63;5050220;28;20447;-52
2023/05/10 06:46:11;;;;;;;56.15;28.13;;;;;;;13.09;100.00;100798.84;5052481;28;20048;-53
2023/05/10 06:48:42;;;;;;;46.53;26.30;;;;;;;13.06;100.00;100803.50;5052234;28;20055;-53
2023/05/10 06:51:12;;;;;;;50.95;27.00;;;;;;;13.08;100.00;100805.06;5052787;28;20534;-53
2023/05/10 06:53:40;;;;;;;54.03;27.35;;;;;;;13.01;100.00;100804.69;5052281;28;20037;-54
2023/05/10 06:56:08;;;;;;;49.35;26.50;;;;;;;13.07;100.00;100805.19;5047619;28;20068;-53
2023/05/10 06:58:36;;;;;;;52.80;29.05;;;;;;;13.03;100.00;100804.56;5047702;28;20052;-51
2023/05/10 07:01:05;;;;;;;54.53;28.30;;;;;;;13.06;100.00;100796.44;5047888;28;20127;-52
2023/05/10 07:03:34;;;;;;;51.15;26.30;;;;;;;13.10;100.00;100802.31;5049836;28;20106;-53
2023/05/10 07:06:04;;;;;;;49.28;27.20;;;;;;;13.08;100.00;100806.88;5052534;28;20045;-51
2023/05/10 07:08:33;;;;;;;48.58;26.45;;;;;;;13.05;100.00;100815.00;5050712;28;20091;-52
2023/05/10 07:11:03;;;;;;;48.03;26.50;;;;;;;13.07;100.00;100807.84;5051275;28;20095;-53
2023/05/10 07:13:31;;;;;;;49.58;26.20;;;;;;;13.12;100.00;100816.25;5047792;28;20099;-54
2023/05/10 07:16:01;;;;;;;47.88;26.17;;;;;;;13.11;100.00;100819.84;5047827;28;20438;-61
2023/05/10 07:18:29;;;;;;;48.33;27.63;;;;;;;13.09;100.00;100819.09;5050470;28;20091;-61
2023/05/10 07:20:58;;;;;;;48.00;27.00;;;;;;;13.13;100.00;100820.56;5052112;28;20049;-61
2023/05/10 07:23:26;;;;;;;49.92;28.55;;;;;;;13.11;100.00;100817.19;5049181;28;20098;-60
2023/05/10 07:25:57;;;;;;;48.78;27.77;;;;;;;13.13;100.00;100825.84;5049388;28;20052;-61
2023/05/10 07:28:25;;;;;;;48.20;29.02;;;;;;;13.17;100.00;100833.41;5052531;28;20084;-60
2023/05/10 07:30:53;;;;;;;51.40;27.45;;;;;;;13.21;100.00;100831.41;5052088;28;20041;-61
2023/05/10 07:33:21;;;;;;;49.30;28.00;;;;;;;13.29;100.00;100830.78;5051939;28;20037;-61
2023/05/10 07:35:50;;;;;;;54.47;29.60;;;;;;;13.34;100.00;100826.81;5048245;28;20057;-61
2023/05/10 07:38:19;;;;;;;54.30;29.42;;;;;;;13.33;100.00;100833.09;5049276;28;20048;-61
2023/05/10 07:40:47;;;;;;;51.70;29.38;;;;;;;13.39;100.00;100836.22;5049304;28;20073;-61
2023/05/10 07:43:16;;;;;;;57.72;30.00;;;;;;;13.38;100.00;100834.56;5050801;28;20091;-61
2023/05/10 07:45:44;;;;;;;58.00;32.42;;;;;;;13.42;100.00;100839.50;5051829;28;20055;-61
2023/05/10 07:48:12;;;;;;;56.67;32.13;;;;;;;13.46;100.00;100840.09;5052084;28;20492;-54
2023/05/10 07:50:40;;;;;;;64.22;32.85;;;;;;;13.47;100.00;100847.03;5051385;28;20056;-54
2023/05/10 07:53:08;;;;;;;58.17;31.13;;;;;;;13.54;100.00;100850.91;5048711;28;20549;-54
2023/05/10 07:55:36;;;;;;;63.58;30.42;;;;;;;13.54;100.00;100850.91;5048218;28;20748;-54
2023/05/10 07:58:08;;;;;;;56.38;31.10;;;;;;;13.58;100.00;100847.06;5048534;28;20041;-62
2023/05/10 08:00:39;;;;;;;61.50;30.77;;;;;;;13.59;100.00;100846.09;5050718;28;20053;-54
2023/05/10 08:03:07;;;;;;;55.92;30.45;;;;;;;13.62;100.00;100848.50;5051722;28;20136;-54
2023/05/10 08:05:35;;;;;;;53.78;31.15;;;;;;;13.70;100.00;100847.91;5051171;28;20053;-61
2023/05/10 08:08:03;;;;;;;55.97;30.67;;;;;;;13.74;100.00;100851.16;5048908;28;20041;-61
2023/05/10 08:10:32;;;;;;;52.45;28.50;;;;;;;13.79;100.00;100852.47;5050173;28;20404;-61
2023/05/10 08:13:00;;;;;;;50.17;28.33;;;;;;;13.84;100.00;100857.41;5052131;28;20045;-62
2023/05/10 08:15:28;;;;;;;47.72;27.38;;;;;;;13.86;100.00;100858.13;5051473;28;20077;-62
2023/05/10 08:17:57;;;;;;;49.88;26.73;;;;;;;14.00;100.00;100849.94;5048328;28;20052;-62
2023/05/10 08:20:28;;;;;;;51.28;27.65;;;;;;;14.07;100.00;100855.59;5047042;28;20049;-62
2023/05/10 08:22:59;;;;;;;50.50;28.25;;;;;;;14.15;100.00;100853.16;5053378;28;20061;-60
2023/05/10 08:25:28;;;;;;;51.00;29.02;;;;;;;14.28;100.00;100852.19;5052496;28;20044;-55
2023/05/10 08:27:56;;;;;;;42.63;25.27;;;;;;;14.33;100.00;100857.94;5051623;28;20399;-61
2023/05/10 08:30:24;;;;;;;41.17;24.13;;;;;;;14.44;100.00;100860.56;5052722;28;20083;-61
2023/05/10 08:32:52;;;;;;;38.72;23.60;;;;;;;14.40;100.00;100861.75;5053123;28;20053;-61
2023/05/10 08:35:22;;;;;;;36.80;22.13;;;;;;;14.44;100.00;100868.50;5055052;28;20095;-62
2023/05/10 08:37:50;;;;;;;37.97;23.05;;;;;;;14.47;100.00;100873.53;5052645;28;20435;-62
2023/05/10 08:40:20;;;;;;;35.22;21.38;;;;;;;14.55;100.00;100870.25;5051990;28;20059;-55
2023/05/10 08:43:01;;;;;;;34.80;20.77;;;;;;;14.63;100.00;100881.09;5055022;28;20057;-54
2023/05/10 08:45:34;;;;;;;29.58;18.52;;;;;;;14.74;100.00;100885.50;5054865;28;20049;-53
2023/05/10 08:48:03;;;;;;;25.40;15.90;;;;;;;14.89;100.00;100886.06;5055045;28;20080;-62
2023/05/10 08:50:34;;;;;;;24.98;15.95;;;;;;;15.06;100.00;100894.41;5051771;28;20037;-55
2023/05/10 08:53:05;;;;;;;27.05;16.77;;;;;;;15.25;100.00;100899.00;5051919;28;20102;-55
2023/05/10 08:55:36;;;;;;;28.98;18.52;;;;;;;15.32;100.00;100903.63;5054766;28;20075;-55
2023/05/10 08:58:04;;;;;;;30.38;17.17;;;;;;;15.27;100.00;100908.50;5054657;28;20061;-55
2023/05/10 09:00:33;;;;;;;31.80;18.65;;;;;;;15.28;100.00;100909.31;5053121;28;20068;-61
2023/05/10 09:03:02;;;;;;;30.15;18.17;;;;;;;15.20;100.00;100918.78;5051369;28;20049;-62
2023/05/10 09:05:30;;;;;;;29.05;16.75;;;;;;;15.26;100.00;100914.75;5054036;28;20485;-62
2023/05/10 09:08:00;;;;;;;25.55;16.45;;;;;;;15.16;100.00;100919.13;5054544;28;20131;-62
2023/05/10 09:10:30;;;;;;;25.70;15.68;;;;;;;15.34;100.00;100930.84;5053346;28;20103;-61
2023/05/10 09:12:58;;;;;;;23.15;14.55;;;;;;;15.37;100.00;100925.28;5051100;28;20506;-62
2023/05/10 09:15:26;;;;;;;21.80;11.88;;;;;;;15.37;100.00;100922.63;5051213;28;20057;-53
2023/05/10 09:17:55;;;;;;;22.10;12.68;;;;;;;15.28;100.00;100928.69;5053910;28;20045;-56
2023/05/10 09:20:23;;;;;;;17.27;11.63;;;;;;;15.38;100.00;100932.28;5054202;28;20048;-55
2023/05/10 09:22:52;;;;;;;18.38;11.23;;;;;;;15.67;100.00;100934.25;5053120;28;20045;-55
2023/05/10 09:25:22;;;;;;;14.85;9.70;;;;;;;15.83;100.00;100938.31;5051194;28;20138;-55
2023/05/10 09:27:50;;;;;;;14.77;8.40;;;;;;;16.05;100.00;100940.75;5052656;28;20472;-56
2023/05/10 09:30:25;;;;;;;14.50;8.88;;;;;;;16.10;100.00;100950.13;5054020;28;20484;-55
2023/05/10 09:32:54;;;;;;;12.43;8.18;;;;;;;15.96;100.00;100954.81;5053799;28;20041;-55
2023/05/10 09:35:24;;;;;;;15.63;8.55;;;;;;;16.08;100.00;100955.56;5052780;28;20052;-55
2023/05/10 09:37:58;;;;;;;16.75;8.82;;;;;;;16.13;100.00;100957.81;5042486;28;20052;-56
2023/05/10 09:40:29;;;;;;;13.32;7.68;;;;;;;16.22;100.00;100960.53;5032824;28;20195;-55
2023/05/10 09:42:59;;;;;;;14.15;7.20;;;;;;;16.00;100.00;100966.84;5030989;28;20088;-55
2023/05/10 09:45:28;;;;;;;11.82;6.90;;;;;;;15.85;100.00;100961.03;5030854;28;20531;-56
2023/05/10 09:47:57;;;;;;;12.35;6.78;;;;;;;15.96;100.00;100973.38;5039249;28;20057;-56
2023/05/10 09:50:25;;;;;;;10.95;6.65;;;;;;;16.08;100.00;100974.13;5050006;28;20492;-55
2023/05/10 09:52:57;;;;;;;11.45;6.60;;;;;;;16.25;100.00;100962.06;5050678;28;20037;-56
2023/05/10 09:55:39;;;;;;;10.57;6.55;;;;;;;16.48;100.00;100967.16;5050577;28;20645;-56
2023/05/10 09:58:10;;;;;;;11.13;6.37;;;;;;;16.60;100.00;100965.25;5052852;28;20377;-56
2023/05/10 10:00:40;;;;;;;12.07;6.38;;;;;;;16.87;100.00;100968.06;5052520;28;20067;-56
2023/05/10 10:03:15;;;;;;;12.02;6.95;;;;;;;16.87;100.00;100970.72;5048694;28;20044;-57
2023/05/10 10:05:44;;;;;;;12.60;7.18;;;;;;;16.92;100.00;100975.69;5049393;28;20045;-56
2023/05/10 10:08:13;;;;;;;11.70;6.57;;;;;;;16.82;100.00;100980.91;5053278;28;20052;-56
2023/05/10 10:10:44;;;;;;;11.40;6.45;;;;;;;16.92;100.00;100975.69;5053427;28;20116;-54
2023/05/10 10:13:14;;;;;;;11.77;6.72;;;;;;;16.84;100.00;100986.94;5052733;28;20407;-55
2023/05/10 10:15:43;;;;;;;11.65;6.05;;;;;;;16.55;100.00;100989.53;5053316;28;20091;-56
2023/05/10 10:18:14;;;;;;;11.02;5.82;;;;;;;16.65;100.00;100992.22;5053632;28;20049;-55
2023/05/10 10:20:43;;;;;;;11.35;6.28;;;;;;;16.70;100.00;100988.19;5053294;28;20063;-56
2023/05/10 10:23:12;;;;;;;12.88;6.55;;;;;;;16.68;100.00;100991.94;5052732;28;20508;-56
2023/05/10 10:25:44;;;;;;;13.05;6.10;;;;;;;16.62;100.00;100985.38;5044731;28;20072;-56
2023/05/10 10:28:24;;;;;;;11.73;5.57;;;;;;;16.85;100.00;100987.78;5034398;28;20038;-56
2023/05/10 10:30:57;;;;;;;10.80;5.53;;;;;;;16.90;100.00;100982.94;5039573;28;20049;-55
2023/05/10 10:33:56;;;;;;;10.98;6.00;;;;;;;16.87;100.00;100986.66;5052831;28;20078;-56
2023/05/10 10:36:26;;;;;;;10.02;6.38;;;;;;;17.11;100.00;100981.97;5052934;28;20052;-56
2023/05/10 10:39:02;;;;;;;10.63;5.90;;;;;;;17.20;100.00;100989.09;5050882;28;20052;-57
2023/05/10 10:41:34;;;;;;;12.77;6.40;;;;;;;17.17;100.00;100986.75;5039735;28;20401;-56
2023/05/10 10:44:34;;;;;;;10.75;6.55;;;;;;;17.13;100.00;100983.50;5034251;28;20148;-57
2023/05/10 10:47:05;;;;;;;10.75;6.28;;;;;;;17.16;100.00;100987.72;5032859;28;20045;-57
2023/05/10 10:49:38;;;;;;;10.50;6.47;;;;;;;16.75;100.00;100985.09;5029226;28;20497;-56
2023/05/10 10:52:30;;;;;;;13.13;6.95;;;;;;;16.91;100.00;100989.94;5029730;28;20092;-57
2023/05/10 10:55:01;;;;;;;12.93;7.15;;;;;;;16.83;100.00;100987.09;5030911;28;20061;-55
2023/05/10 10:57:33;;;;;;;16.63;7.88;;;;;;;17.00;100.00;100991.75;5031307;28;20499;-57
2023/05/10 11:00:20;;;;;;;13.07;7.60;;;;;;;17.21;100.00;100982.81;5032636;28;20076;-57
2023/05/10 11:02:51;;;;;;;11.43;7.05;;;;;;;17.13;100.00;100993.31;5039105;28;20570;-56
2023/05/10 11:05:41;;;;;;;14.10;7.28;;;;;;;17.14;100.00;100989.66;5030015;28;20052;-57
2023/05/10 11:08:17;;;;;;;12.32;7.55;;;;;;;17.03;100.00;100998.63;5031730;28;20037;-57
2023/05/10 11:10:54;;;;;;;13.93;7.57;;;;;;;16.93;100.00;101001.25;5044673;28;20053;-56
2023/05/10 11:13:30;;;;;;;13.25;7.65;;;;;;;16.89;100.00;101002.50;5030615;28;20392;-57
2023/05/10 11:15:59;;;;;;;13.25;8.10;;;;;;;17.06;100.00;100999.16;5050808;28;20511;-56
2023/05/10 11:18:29;;;;;;;12.05;7.75;;;;;;;17.23;100.00;100989.69;5050267;28;20072;-57